createdAt,value
2024-04-17T00:00:50.830Z,69
2024-04-17T00:01:50.957Z,69
2024-04-17T00:02:51.222Z,69
2024-04-17T00:03:51.251Z,70
2024-04-17T00:04:51.434Z,70
2024-04-17T00:05:51.571Z,70
2024-04-17T00:06:51.684Z,70
2024-04-17T00:07:51.816Z,70
2024-04-17T00:08:51.902Z,70
2024-04-17T00:09:52.020Z,70
2024-04-17T00:10:52.285Z,70
2024-04-17T00:11:52.383Z,70
2024-04-17T00:12:52.506Z,70
2024-04-17T00:13:52.727Z,70
2024-04-17T00:14:52.914Z,70
2024-04-17T00:15:53.068Z,70
2024-04-17T00:16:53.313Z,70
2024-04-17T00:17:53.568Z,70
2024-04-17T00:18:53.711Z,70
2024-04-17T00:19:53.884Z,70
2024-04-17T00:20:53.875Z,70
2024-04-17T00:21:53.978Z,70
2024-04-17T00:22:54.184Z,70
2024-04-17T00:23:54.385Z,70
2024-04-17T00:24:54.547Z,70
2024-04-17T00:25:54.674Z,70
2024-04-17T00:26:54.651Z,70
2024-04-17T00:27:54.693Z,70
2024-04-17T00:28:54.855Z,70
2024-04-17T00:29:55.206Z,70
2024-04-17T00:30:55.223Z,70
2024-04-17T00:31:55.591Z,70
2024-04-17T00:32:55.698Z,71
2024-04-17T00:33:55.752Z,71
2024-04-17T00:34:55.906Z,71
2024-04-17T00:35:56.004Z,71
2024-04-17T00:36:56.123Z,71
2024-04-17T00:37:56.258Z,71
2024-04-17T00:38:56.457Z,71
2024-04-17T00:39:56.547Z,70
2024-04-17T00:40:56.796Z,70
2024-04-17T00:41:56.875Z,70
2024-04-17T00:42:56.985Z,70
2024-04-17T00:43:57.081Z,70
2024-04-17T00:44:57.092Z,70
2024-04-17T00:45:57.369Z,70
2024-04-17T00:46:57.526Z,70
2024-04-17T00:47:57.678Z,70
2024-04-17T00:48:57.691Z,69
2024-04-17T00:49:57.876Z,69
2024-04-17T00:50:57.913Z,69
2024-04-17T00:51:57.957Z,69
2024-04-17T00:52:58.194Z,69
2024-04-17T00:53:58.067Z,69
2024-04-17T00:54:58.224Z,69
2024-04-17T00:55:58.417Z,69
2024-04-17T00:56:58.441Z,69
2024-04-17T00:57:58.605Z,69
2024-04-17T00:58:58.863Z,69
2024-04-17T00:59:58.975Z,69
2024-04-17T01:00:59.263Z,69
2024-04-17T01:02:00.953Z,69
2024-04-17T01:02:59.412Z,69
2024-04-17T01:03:59.525Z,69
2024-04-17T01:04:59.638Z,69
2024-04-17T01:05:59.629Z,70
2024-04-17T01:07:00.237Z,70
2024-04-17T01:08:00.286Z,70
2024-04-17T01:09:00.379Z,70
2024-04-17T01:10:00.661Z,70
2024-04-17T01:11:00.723Z,71
2024-04-17T01:12:00.589Z,71
2024-04-17T01:13:00.652Z,71
2024-04-17T01:14:00.821Z,71
2024-04-17T01:15:00.909Z,71
2024-04-17T01:16:01.025Z,71
2024-04-17T01:17:01.207Z,71
2024-04-17T01:18:01.420Z,71
2024-04-17T01:19:01.655Z,71
2024-04-17T01:20:02.188Z,71
2024-04-17T01:21:02.195Z,71
2024-04-17T01:22:02.312Z,70
2024-04-17T01:23:02.537Z,70
2024-04-17T01:24:02.619Z,70
2024-04-17T01:25:02.716Z,70
2024-04-17T01:26:02.974Z,69
2024-04-17T01:27:02.987Z,69
2024-04-17T01:28:03.165Z,69
2024-04-17T01:29:03.219Z,69
2024-04-17T01:30:03.317Z,69
2024-04-17T01:31:03.476Z,69
2024-04-17T01:32:03.743Z,69
2024-04-17T01:33:03.852Z,68
2024-04-17T01:34:03.976Z,68
2024-04-17T01:35:04.167Z,68
2024-04-17T01:36:04.341Z,68
2024-04-17T01:37:04.642Z,68
2024-04-17T01:38:04.801Z,68
2024-04-17T01:39:05.137Z,68
2024-04-17T01:40:05.067Z,68
2024-04-17T01:41:05.173Z,68
2024-04-17T01:42:05.439Z,68
2024-04-17T01:43:05.641Z,68
2024-04-17T01:44:05.957Z,68
2024-04-17T01:45:06.126Z,68
2024-04-17T01:46:06.320Z,68
2024-04-17T01:47:06.367Z,68
2024-04-17T01:48:06.600Z,68
2024-04-17T01:49:06.560Z,68
2024-04-17T01:51:14.678Z,68
2024-04-17T01:52:14.679Z,68
2024-04-17T01:53:14.670Z,68
2024-04-17T01:54:15.183Z,68
2024-04-17T01:55:15.168Z,68
2024-04-17T01:56:15.222Z,68
2024-04-17T01:57:15.522Z,68
2024-04-17T01:58:15.860Z,68
2024-04-17T01:59:15.976Z,68
2024-04-17T02:00:16.146Z,68
2024-04-17T02:01:16.138Z,68
2024-04-17T02:02:16.297Z,68
2024-04-17T02:03:16.504Z,68
2024-04-17T02:04:16.571Z,68
2024-04-17T02:05:16.743Z,68
2024-04-17T02:06:16.840Z,68
2024-04-17T02:07:17.104Z,68
2024-04-17T02:08:17.463Z,68
2024-04-17T02:09:17.572Z,68
2024-04-17T02:10:17.741Z,68
2024-04-17T02:11:17.934Z,68
2024-04-17T02:12:18.008Z,68
2024-04-17T02:13:18.311Z,68
2024-04-17T02:14:18.475Z,68
2024-04-17T02:15:18.597Z,68
2024-04-17T02:16:18.691Z,68
2024-04-17T02:17:19.018Z,68
2024-04-17T02:18:19.279Z,68
2024-04-17T02:19:19.271Z,68
2024-04-17T02:20:19.562Z,68
2024-04-17T02:21:19.646Z,68
2024-04-17T02:22:19.878Z,68
2024-04-17T02:23:20.015Z,68
2024-04-17T02:24:20.174Z,68
2024-04-17T02:25:20.392Z,68
2024-04-17T02:26:20.446Z,68
2024-04-17T02:27:20.764Z,68
2024-04-17T02:28:20.833Z,68
2024-04-17T02:29:20.943Z,68
2024-04-17T02:30:21.039Z,67
2024-04-17T02:31:21.218Z,67
2024-04-17T02:32:21.421Z,67
2024-04-17T02:33:21.616Z,67
2024-04-17T02:34:21.667Z,67
2024-04-17T02:35:21.892Z,67
2024-04-17T02:36:22.085Z,67
2024-04-17T02:37:22.246Z,67
2024-04-17T02:38:22.318Z,67
2024-04-17T02:39:22.421Z,67
2024-04-17T02:40:22.630Z,67
2024-04-17T02:41:22.682Z,68
2024-04-17T02:42:22.855Z,68
2024-04-17T02:43:22.969Z,68
2024-04-17T02:44:23.124Z,68
2024-04-17T02:45:23.226Z,68
2024-04-17T02:46:23.468Z,68
2024-04-17T02:47:23.565Z,68
2024-04-17T02:48:26.479Z,68
2024-04-17T02:49:23.797Z,68
2024-04-17T02:50:23.871Z,68
2024-04-17T02:51:23.979Z,68
2024-04-17T02:52:24.184Z,68
2024-04-17T02:53:24.200Z,68
2024-04-17T02:54:24.313Z,68
2024-04-17T02:55:24.467Z,68
2024-04-17T02:56:24.628Z,68
2024-04-17T02:57:24.785Z,68
2024-04-17T02:58:24.911Z,68
2024-04-17T02:59:25.005Z,68
2024-04-17T03:00:25.059Z,68
2024-04-17T03:01:25.216Z,68
2024-04-17T03:02:25.407Z,68
2024-04-17T03:03:25.554Z,68
2024-04-17T03:04:25.661Z,68
2024-04-17T03:05:25.725Z,68
2024-04-17T03:06:25.817Z,68
2024-04-17T03:07:25.982Z,68
2024-04-17T03:08:26.081Z,68
2024-04-17T03:09:26.194Z,68
2024-04-17T03:10:26.366Z,68
2024-04-17T03:11:26.473Z,68
2024-04-17T03:12:26.580Z,68
2024-04-17T03:13:26.646Z,68
2024-04-17T03:14:26.789Z,68
2024-04-17T03:15:26.903Z,68
2024-04-17T03:16:27.002Z,68
2024-04-17T03:17:27.163Z,68
2024-04-17T03:18:27.263Z,68
2024-04-17T03:19:27.384Z,68
2024-04-17T03:20:27.601Z,68
2024-04-17T03:21:27.714Z,68
2024-04-17T03:22:27.821Z,68
2024-04-17T03:23:28.038Z,68
2024-04-17T03:24:28.250Z,68
2024-04-17T03:25:28.369Z,68
2024-04-17T03:26:28.968Z,68
2024-04-17T03:27:28.518Z,68
2024-04-17T03:28:28.597Z,68
2024-04-17T03:29:28.728Z,68
2024-04-17T03:30:28.880Z,68
2024-04-17T03:31:29.020Z,68
2024-04-17T03:32:29.079Z,68
2024-04-17T03:33:29.296Z,68
2024-04-17T03:34:29.495Z,68
2024-04-17T03:35:29.550Z,68
2024-04-17T03:36:29.638Z,68
2024-04-17T03:37:29.829Z,68
2024-04-17T03:38:29.970Z,68
2024-04-17T03:39:30.075Z,68
2024-04-17T03:40:30.253Z,68
2024-04-17T03:41:30.392Z,68
2024-04-17T03:42:30.660Z,68
2024-04-17T03:43:30.568Z,68
2024-04-17T03:44:30.655Z,68
2024-04-17T03:45:30.750Z,68
2024-04-17T03:46:30.965Z,68
2024-04-17T03:47:31.095Z,68
2024-04-17T03:48:31.420Z,68
2024-04-17T03:49:31.541Z,68
2024-04-17T03:50:31.723Z,68
2024-04-17T03:51:31.883Z,68
2024-04-17T03:52:32.015Z,68
2024-04-17T03:53:32.664Z,68
2024-04-17T03:54:32.262Z,68
2024-04-17T03:55:32.386Z,68
2024-04-17T03:56:32.507Z,68
2024-04-17T03:57:32.639Z,68
2024-04-17T03:58:32.774Z,68
2024-04-17T03:59:33.013Z,68
2024-04-17T04:00:33.127Z,68
2024-04-17T04:01:33.292Z,68
2024-04-17T04:02:33.525Z,68
2024-04-17T04:03:33.647Z,68
2024-04-17T04:04:33.746Z,68
2024-04-17T04:05:34.166Z,68
2024-04-17T04:06:33.975Z,68
2024-04-17T04:07:34.098Z,68
2024-04-17T04:08:34.354Z,68
2024-04-17T04:09:34.410Z,69
2024-04-17T04:10:34.547Z,69
2024-04-17T04:11:34.636Z,69
2024-04-17T04:12:34.685Z,69
2024-04-17T04:13:34.827Z,69
2024-04-17T04:14:34.912Z,69
2024-04-17T04:15:35.070Z,68
2024-04-17T04:16:35.218Z,68
2024-04-17T04:17:35.360Z,68
2024-04-17T04:18:35.499Z,68
2024-04-17T04:19:35.562Z,68
2024-04-17T04:20:35.653Z,68
2024-04-17T04:21:35.766Z,68
2024-04-17T04:22:35.882Z,68
2024-04-17T04:23:35.976Z,68
2024-04-17T04:24:36.085Z,69
2024-04-17T04:25:36.259Z,69
2024-04-17T04:26:36.419Z,69
2024-04-17T04:27:36.475Z,69
2024-04-17T04:28:36.604Z,69
2024-04-17T04:29:36.678Z,69
2024-04-17T04:30:36.906Z,69
2024-04-17T04:31:37.031Z,69
2024-04-17T04:32:37.161Z,69
2024-04-17T04:33:37.320Z,69
2024-04-17T04:34:37.557Z,69
2024-04-17T04:35:37.729Z,69
2024-04-17T04:36:37.811Z,69
2024-04-17T04:37:37.930Z,69
2024-04-17T04:38:38.146Z,69
2024-04-17T04:39:38.277Z,69
2024-04-17T04:40:38.538Z,69
2024-04-17T04:41:38.600Z,69
2024-04-17T04:42:38.661Z,69
2024-04-17T04:43:38.766Z,69
2024-04-17T04:44:38.894Z,69
2024-04-17T04:45:38.947Z,69
2024-04-17T04:46:39.055Z,69
2024-04-17T04:47:39.170Z,69
2024-04-17T04:48:39.221Z,69
2024-04-17T04:49:39.447Z,69
2024-04-17T04:50:39.573Z,69
2024-04-17T04:51:39.793Z,69
2024-04-17T04:52:40.076Z,69
2024-04-17T04:53:40.056Z,69
2024-04-17T04:54:40.283Z,69
2024-04-17T04:55:40.469Z,69
2024-04-17T04:56:40.594Z,69
2024-04-17T04:57:40.747Z,69
2024-04-17T04:58:40.867Z,69
2024-04-17T04:59:40.966Z,68
2024-04-17T05:00:41.180Z,68
2024-04-17T05:01:41.474Z,68
2024-04-17T05:02:41.715Z,69
2024-04-17T05:03:41.669Z,69
2024-04-17T05:04:41.858Z,69
2024-04-17T05:05:41.920Z,69
2024-04-17T05:06:42.206Z,69
2024-04-17T05:07:42.265Z,69
2024-04-17T05:08:42.509Z,69
2024-04-17T05:09:42.461Z,69
2024-04-17T05:10:42.578Z,69
2024-04-17T05:11:42.916Z,69
2024-04-17T05:12:43.097Z,69
2024-04-17T05:13:43.243Z,69
2024-04-17T05:14:43.311Z,69
2024-04-17T05:15:43.378Z,69
2024-04-17T05:16:43.501Z,69
2024-04-17T05:17:43.733Z,69
2024-04-17T05:18:43.788Z,69
2024-04-17T05:19:43.873Z,69
2024-04-17T05:20:43.962Z,69
2024-04-17T05:21:44.629Z,69
2024-04-17T05:22:44.816Z,69
2024-04-17T05:23:44.904Z,69
2024-04-17T05:24:45.219Z,69
2024-04-17T05:25:45.351Z,69
2024-04-17T05:26:45.742Z,69
2024-04-17T05:27:46.312Z,69
2024-04-17T05:28:46.343Z,69
2024-04-17T05:29:47.225Z,69
2024-04-17T05:30:46.692Z,69
2024-04-17T05:31:46.909Z,69
2024-04-17T05:32:47.205Z,69
2024-04-17T05:33:47.212Z,69
2024-04-17T05:34:47.304Z,69
2024-04-17T05:35:47.386Z,68
2024-04-17T05:36:47.548Z,68
2024-04-17T05:37:47.952Z,68
2024-04-17T05:38:48.028Z,68
2024-04-17T05:39:48.235Z,68
2024-04-17T05:40:48.595Z,68
2024-04-17T05:41:48.706Z,68
2024-04-17T05:42:48.709Z,68
2024-04-17T05:43:48.972Z,68
2024-04-17T05:44:48.983Z,68
2024-04-17T05:45:49.151Z,68
2024-04-17T05:46:49.367Z,68
2024-04-17T05:47:49.391Z,68
2024-04-17T05:48:49.476Z,68
2024-04-17T05:49:51.470Z,68
2024-04-17T05:50:49.680Z,68
2024-04-17T05:51:49.804Z,68
2024-04-17T05:52:49.918Z,68
2024-04-17T05:53:50.055Z,68
2024-04-17T05:54:50.165Z,68
2024-04-17T05:55:50.436Z,68
2024-04-17T05:56:50.419Z,68
2024-04-17T05:57:50.491Z,68
2024-04-17T05:58:50.972Z,68
2024-04-17T05:59:51.022Z,68
2024-04-17T06:00:51.465Z,68
2024-04-17T06:01:51.710Z,68
2024-04-17T06:02:51.846Z,68
2024-04-17T06:03:51.977Z,68
2024-04-17T06:04:52.049Z,68
2024-04-17T06:05:52.540Z,68
2024-04-17T06:06:52.141Z,68
2024-04-17T06:07:52.414Z,68
2024-04-17T06:08:52.405Z,68
2024-04-17T06:09:52.467Z,68
2024-04-17T06:10:52.636Z,68
2024-04-17T06:11:52.683Z,68
2024-04-17T06:12:52.739Z,68
2024-04-17T06:13:53.219Z,68
2024-04-17T06:14:53.307Z,68
2024-04-17T06:15:53.383Z,69
2024-04-17T06:16:53.516Z,69
2024-04-17T06:17:53.623Z,69
2024-04-17T06:18:53.758Z,69
2024-04-17T06:19:53.903Z,69
2024-04-17T06:20:53.963Z,69
2024-04-17T06:21:54.078Z,69
2024-04-17T06:22:54.306Z,69
2024-04-17T06:23:54.393Z,69
2024-04-17T06:24:54.497Z,69
2024-04-17T06:25:54.744Z,69
2024-04-17T06:26:54.825Z,69
2024-04-17T06:27:54.923Z,69
2024-04-17T06:28:55.093Z,68
2024-04-17T06:29:55.171Z,68
2024-04-17T06:30:55.303Z,68
2024-04-17T06:31:55.338Z,68
2024-04-17T06:32:55.621Z,68
2024-04-17T06:33:55.634Z,68
2024-04-17T06:34:55.807Z,68
2024-04-17T06:35:56.032Z,68
2024-04-17T06:36:55.916Z,68
2024-04-17T06:37:56.066Z,68
2024-04-17T06:38:56.178Z,68
2024-04-17T06:39:56.299Z,68
2024-04-17T06:40:56.436Z,68
2024-04-17T06:42:00.996Z,68
2024-04-17T06:42:56.617Z,68
2024-04-17T06:43:57.248Z,68
2024-04-17T06:44:56.734Z,68
2024-04-17T06:45:56.820Z,68
2024-04-17T06:46:57.179Z,68
2024-04-17T06:47:57.266Z,68
2024-04-17T06:48:57.327Z,68
2024-04-17T06:49:57.715Z,68
2024-04-17T06:50:57.743Z,68
2024-04-17T06:51:57.899Z,68
2024-04-17T06:52:58.281Z,68
2024-04-17T06:53:58.320Z,68
2024-04-17T06:54:58.427Z,68
2024-04-17T06:55:58.640Z,68
2024-04-17T06:56:59.061Z,68
2024-04-17T06:57:59.164Z,68
2024-04-17T06:58:59.321Z,68
2024-04-17T06:59:59.691Z,68
2024-04-17T07:00:59.847Z,68
2024-04-17T07:02:00.005Z,68
2024-04-17T07:03:04.218Z,68
2024-04-17T07:04:00.296Z,68
2024-04-17T07:05:00.459Z,68
2024-04-17T07:06:00.647Z,68
2024-04-17T07:07:00.785Z,68
2024-04-17T07:08:00.916Z,68
2024-04-17T07:09:01.233Z,68
2024-04-17T07:10:01.356Z,68
2024-04-17T07:11:01.719Z,68
2024-04-17T07:12:01.897Z,68
2024-04-17T07:13:02.043Z,68
2024-04-17T07:14:02.233Z,68
2024-04-17T07:15:02.495Z,68
2024-04-17T07:16:02.632Z,68
2024-04-17T07:17:02.729Z,68
2024-04-17T07:18:02.907Z,68
2024-04-17T07:19:03.069Z,68
2024-04-17T07:20:03.209Z,68
2024-04-17T07:21:03.260Z,68
2024-04-17T07:22:03.824Z,68
2024-04-17T07:23:03.466Z,68
2024-04-17T07:24:03.597Z,68
2024-04-17T07:25:03.684Z,68
2024-04-17T07:26:03.820Z,68
2024-04-17T07:27:03.955Z,68
2024-04-17T07:28:04.116Z,68
2024-04-17T07:29:04.357Z,68
2024-04-17T07:30:04.346Z,68
2024-04-17T07:31:04.459Z,68
2024-04-17T07:32:07.550Z,68
2024-04-17T07:33:05.132Z,68
2024-04-17T07:34:04.881Z,68
2024-04-17T07:35:05.001Z,68
2024-04-17T07:36:05.205Z,68
2024-04-17T07:37:05.469Z,68
2024-04-17T07:38:05.568Z,68
2024-04-17T07:39:05.884Z,68
2024-04-17T07:40:06.086Z,68
2024-04-17T07:41:06.269Z,68
2024-04-17T07:42:06.723Z,67
2024-04-17T07:43:06.818Z,67
2024-04-17T07:44:06.912Z,67
2024-04-17T07:45:06.986Z,67
2024-04-17T07:46:07.144Z,68
2024-04-17T07:47:07.176Z,68
2024-04-17T07:48:09.620Z,68
2024-04-17T07:52:26.484Z,68
2024-04-17T07:53:26.290Z,68
2024-04-17T07:54:26.540Z,68
2024-04-17T07:55:26.688Z,68
2024-04-17T07:56:26.769Z,68
2024-04-17T07:57:26.927Z,68
2024-04-17T07:58:27.101Z,68
2024-04-17T07:59:28.992Z,68
2024-04-17T08:00:27.404Z,68
2024-04-17T08:01:27.545Z,68
2024-04-17T08:02:27.627Z,68
2024-04-17T08:03:27.730Z,68
2024-04-17T08:04:27.924Z,68
2024-04-17T08:05:29.798Z,68
2024-04-17T08:06:28.111Z,67
2024-04-17T08:07:28.265Z,67
2024-04-17T08:08:28.353Z,67
2024-04-17T08:09:28.470Z,67
2024-04-17T08:10:28.594Z,67
2024-04-17T08:11:29.653Z,67
2024-04-17T08:12:28.766Z,67
2024-04-17T08:13:28.874Z,67
2024-04-17T08:14:28.982Z,67
2024-04-17T08:15:29.091Z,67
2024-04-17T08:16:29.242Z,67
2024-04-17T08:17:29.400Z,67
2024-04-17T08:18:29.429Z,67
2024-04-17T08:19:29.589Z,67
2024-04-17T08:20:29.853Z,67
2024-04-17T08:21:30.028Z,67
2024-04-17T08:22:30.127Z,67
2024-04-17T08:23:31.684Z,67
2024-04-17T08:24:30.596Z,67
2024-04-17T08:25:30.723Z,67
2024-04-17T08:26:30.855Z,67
2024-04-17T08:27:30.960Z,67
2024-04-17T08:28:31.075Z,67
2024-04-17T08:29:32.455Z,67
2024-04-17T08:30:31.286Z,67
2024-04-17T08:31:31.648Z,67
2024-04-17T08:32:31.877Z,67
2024-04-17T08:33:32.056Z,67
2024-04-17T08:34:32.250Z,67
2024-04-17T08:35:32.338Z,67
2024-04-17T08:36:32.502Z,67
2024-04-17T08:37:32.675Z,67
2024-04-17T08:38:32.803Z,67
2024-04-17T08:39:32.890Z,67
2024-04-17T08:40:33.053Z,67
2024-04-17T08:41:33.606Z,67
2024-04-17T08:42:33.206Z,67
2024-04-17T08:43:33.357Z,67
2024-04-17T08:44:33.473Z,67
2024-04-17T08:45:43.353Z,67
2024-04-17T08:46:33.713Z,67
2024-04-17T08:47:33.821Z,67
2024-04-17T08:48:34.117Z,67
2024-04-17T08:49:34.181Z,67
2024-04-17T08:50:34.174Z,67
2024-04-17T08:51:34.288Z,67
2024-04-17T08:52:34.354Z,67
2024-04-17T08:53:34.602Z,67
2024-04-17T08:54:34.710Z,67
2024-04-17T08:55:35.403Z,67
2024-04-17T08:56:34.980Z,67
2024-04-17T08:57:35.045Z,67
2024-04-17T08:58:35.427Z,67
2024-04-17T08:59:35.511Z,67
2024-04-17T09:00:35.628Z,66
2024-04-17T09:01:35.737Z,66
2024-04-17T09:02:35.866Z,66
2024-04-17T09:03:35.931Z,66
2024-04-17T09:04:36.154Z,66
2024-04-17T09:05:36.175Z,66
2024-04-17T09:06:36.286Z,66
2024-04-17T09:07:36.503Z,66
2024-04-17T09:08:36.590Z,66
2024-04-17T09:09:36.697Z,66
2024-04-17T09:10:37.026Z,66
2024-04-17T09:11:37.197Z,66
2024-04-17T09:12:37.692Z,66
2024-04-17T09:13:37.382Z,66
2024-04-17T09:14:41.584Z,66
2024-04-17T09:15:37.604Z,66
2024-04-17T09:16:37.903Z,66
2024-04-17T09:17:38.150Z,66
2024-04-17T09:18:38.298Z,66
2024-04-17T09:19:38.412Z,66
2024-04-17T09:20:38.514Z,66
2024-04-17T09:21:38.665Z,66
2024-04-17T09:22:38.851Z,66
2024-04-17T09:23:38.934Z,66
2024-04-17T09:24:39.044Z,66
2024-04-17T09:25:39.271Z,66
2024-04-17T09:26:39.245Z,66
2024-04-17T09:27:39.400Z,66
2024-04-17T09:28:39.561Z,66
2024-04-17T09:29:39.808Z,66
2024-04-17T09:30:39.908Z,66
2024-04-17T09:31:40.024Z,66
2024-04-17T09:32:40.520Z,66
2024-04-17T09:33:40.707Z,66
2024-04-17T09:34:40.920Z,66
2024-04-17T09:35:41.014Z,66
2024-04-17T09:36:41.120Z,66
2024-04-17T09:37:41.276Z,66
2024-04-17T09:38:41.383Z,66
2024-04-17T09:39:41.650Z,66
2024-04-17T09:40:41.865Z,66
2024-04-17T09:41:44.741Z,66
2024-04-17T09:42:42.154Z,66
2024-04-17T09:43:42.433Z,66
2024-04-17T09:44:42.657Z,66
2024-04-17T09:45:42.802Z,66
2024-04-17T09:46:42.858Z,66
2024-04-17T09:47:42.946Z,66
2024-04-17T09:48:43.312Z,66
2024-04-17T09:49:43.457Z,66
2024-04-17T09:50:43.574Z,66
2024-04-17T09:51:44.059Z,66
2024-04-17T09:52:44.172Z,66
2024-04-17T09:53:44.336Z,66
2024-04-17T09:54:44.406Z,66
2024-04-17T09:55:44.587Z,66
2024-04-17T09:56:44.635Z,66
2024-04-17T09:57:44.759Z,66
2024-04-17T09:58:48.947Z,66
2024-04-17T09:59:45.006Z,66
2024-04-17T10:00:45.211Z,66
2024-04-17T10:01:45.340Z,66
2024-04-17T10:02:45.443Z,66
2024-04-17T10:03:45.925Z,66
2024-04-17T10:04:46.028Z,66
2024-04-17T10:05:46.310Z,66
2024-04-17T10:06:46.431Z,66
2024-04-17T10:07:46.648Z,66
2024-04-17T10:08:46.706Z,66
2024-04-17T10:09:47.318Z,66
2024-04-17T10:10:46.971Z,66
2024-04-17T10:11:47.135Z,66
2024-04-17T10:12:47.209Z,66
2024-04-17T10:13:47.363Z,66
2024-04-17T10:14:47.538Z,66
2024-04-17T10:15:47.874Z,66
2024-04-17T10:16:47.762Z,66
2024-04-17T10:17:47.910Z,66
2024-04-17T10:18:47.893Z,66
2024-04-17T10:19:48.029Z,66
2024-04-17T10:20:48.105Z,66
2024-04-17T10:21:48.222Z,66
2024-04-17T10:22:48.466Z,66
2024-04-17T10:23:48.535Z,66
2024-04-17T10:24:48.647Z,66
2024-04-17T10:25:48.742Z,66
2024-04-17T10:26:48.817Z,66
2024-04-17T10:27:48.974Z,66
2024-04-17T10:28:49.034Z,66
2024-04-17T10:29:49.198Z,67
2024-04-17T10:30:49.297Z,67
2024-04-17T10:31:49.460Z,66
2024-04-17T10:32:49.652Z,66
2024-04-17T10:33:50.549Z,66
2024-04-17T10:34:50.086Z,66
2024-04-17T10:35:50.093Z,66
2024-04-17T10:36:50.524Z,66
2024-04-17T10:37:50.769Z,66
2024-04-17T10:38:50.828Z,65
2024-04-17T10:39:50.927Z,65
2024-04-17T10:40:51.068Z,65
2024-04-17T10:41:51.157Z,65
2024-04-17T10:42:51.625Z,65
2024-04-17T10:43:51.560Z,65
2024-04-17T10:44:51.900Z,65
2024-04-17T10:45:51.804Z,65
2024-04-17T10:46:52.274Z,65
2024-04-17T10:47:52.577Z,65
2024-04-17T10:48:52.682Z,65
2024-04-17T10:49:52.816Z,64
2024-04-17T10:50:52.901Z,64
2024-04-17T10:51:53.012Z,64
2024-04-17T10:52:53.124Z,64
2024-04-17T10:53:53.484Z,64
2024-04-17T10:54:53.913Z,64
2024-04-17T10:55:54.092Z,64
2024-04-17T10:56:54.171Z,64
2024-04-17T10:57:54.331Z,64
2024-04-17T10:58:54.482Z,64
2024-04-17T10:59:54.651Z,63
2024-04-17T11:00:54.956Z,63
2024-04-17T11:01:55.264Z,63
2024-04-17T11:02:55.642Z,63
2024-04-17T11:03:55.805Z,63
2024-04-17T11:04:55.997Z,64
2024-04-17T11:05:56.068Z,64
2024-04-17T11:06:56.177Z,64
2024-04-17T11:07:56.278Z,64
2024-04-17T11:08:58.533Z,64
2024-04-17T11:09:56.529Z,64
2024-04-17T11:10:56.755Z,64
2024-04-17T11:11:56.818Z,64
2024-04-17T11:12:56.838Z,64
2024-04-17T11:13:56.983Z,64
2024-04-17T11:14:57.104Z,64
2024-04-17T11:15:57.269Z,64
2024-04-17T11:16:57.594Z,64
2024-04-17T11:17:57.687Z,64
2024-04-17T11:18:57.691Z,63
2024-04-17T11:19:57.931Z,63
2024-04-17T11:20:57.964Z,63
2024-04-17T11:21:57.978Z,63
2024-04-17T11:22:58.061Z,62
2024-04-17T11:24:00.815Z,62
2024-04-17T11:24:58.466Z,62
2024-04-17T11:25:58.629Z,62
2024-04-17T11:26:58.773Z,62
2024-04-17T11:27:58.770Z,61
2024-04-17T11:28:58.967Z,61
2024-04-17T11:29:59.042Z,61
2024-04-17T11:30:59.158Z,61
2024-04-17T11:31:59.410Z,61
2024-04-17T11:32:59.497Z,61
2024-04-17T11:33:59.588Z,61
2024-04-17T11:34:59.809Z,61
2024-04-17T11:35:59.794Z,61
2024-04-17T11:36:59.906Z,61
2024-04-17T11:38:00.214Z,61
2024-04-17T11:39:00.171Z,61
2024-04-17T11:40:00.321Z,61
2024-04-17T11:41:00.586Z,61
2024-04-17T11:42:00.447Z,61
2024-04-17T11:43:00.620Z,61
2024-04-17T11:44:00.708Z,61
2024-04-17T11:45:00.782Z,61
2024-04-17T11:46:00.884Z,61
2024-04-17T11:47:01.158Z,60
2024-04-17T11:48:01.288Z,60
2024-04-17T11:49:01.462Z,60
2024-04-17T11:50:01.874Z,60
2024-04-17T11:51:01.886Z,60
2024-04-17T11:52:01.995Z,60
2024-04-17T11:53:02.332Z,60
2024-04-17T11:54:02.364Z,60
2024-04-17T11:55:02.475Z,60
2024-04-17T11:56:02.649Z,60
2024-04-17T11:57:02.720Z,60
2024-04-17T11:58:03.113Z,60
2024-04-17T11:59:03.338Z,60
2024-04-17T12:00:03.493Z,60
2024-04-17T12:01:03.584Z,60
2024-04-17T12:02:03.669Z,60
2024-04-17T12:03:03.769Z,60
2024-04-17T12:04:04.014Z,60
2024-04-17T12:05:04.153Z,60
2024-04-17T12:06:04.234Z,60
2024-04-17T12:07:04.334Z,60
2024-04-17T12:08:04.607Z,60
2024-04-17T12:09:04.761Z,60
2024-04-17T12:10:05.023Z,60
2024-04-17T12:11:04.958Z,60
2024-04-17T12:12:05.092Z,60
2024-04-17T12:13:05.169Z,60
2024-04-17T12:14:05.402Z,60
2024-04-17T12:15:05.477Z,60
2024-04-17T12:16:05.531Z,60
2024-04-17T12:17:05.600Z,60
2024-04-17T12:18:05.834Z,60
2024-04-17T12:19:05.899Z,60
2024-04-17T12:20:06.111Z,59
2024-04-17T12:21:06.115Z,59
2024-04-17T12:22:06.226Z,59
2024-04-17T12:23:06.442Z,59
2024-04-17T12:24:06.497Z,59
2024-04-17T12:25:06.603Z,59
2024-04-17T12:26:06.889Z,59
2024-04-17T12:27:06.877Z,59
2024-04-17T12:28:07.083Z,59
2024-04-17T12:29:09.193Z,59
2024-04-17T12:30:07.411Z,60
2024-04-17T12:31:07.523Z,60
2024-04-17T12:32:07.663Z,60
2024-04-17T12:33:07.809Z,60
2024-04-17T12:34:07.841Z,60
2024-04-17T12:35:09.986Z,60
2024-04-17T12:36:08.154Z,60
2024-04-17T12:37:08.314Z,60
2024-04-17T12:38:08.544Z,60
2024-04-17T12:39:08.976Z,60
2024-04-17T12:40:09.168Z,59
2024-04-17T12:41:09.398Z,59
2024-04-17T12:42:09.573Z,59
2024-04-17T12:43:09.683Z,59
2024-04-17T12:44:09.819Z,58
2024-04-17T12:45:09.891Z,58
2024-04-17T12:46:10.014Z,58
2024-04-17T12:47:10.204Z,58
2024-04-17T12:48:10.498Z,58
2024-04-17T12:49:10.486Z,58
2024-04-17T12:50:10.643Z,58
2024-04-17T12:51:10.762Z,58
2024-04-17T12:52:10.882Z,57
2024-04-17T12:53:10.997Z,57
2024-04-17T12:54:11.089Z,57
2024-04-17T12:55:11.449Z,57
2024-04-17T12:56:11.639Z,57
2024-04-17T12:57:11.723Z,57
2024-04-17T12:58:11.877Z,57
2024-04-17T12:59:12.007Z,57
2024-04-17T13:00:12.120Z,57
2024-04-17T13:01:12.276Z,57
2024-04-17T13:02:16.904Z,57
2024-04-17T13:03:12.599Z,57
2024-04-17T13:04:12.673Z,57
2024-04-17T13:05:12.812Z,57
2024-04-17T13:06:12.901Z,57
2024-04-17T13:07:13.130Z,57
2024-04-17T13:08:13.236Z,57
2024-04-17T13:09:13.336Z,57
2024-04-17T13:10:13.591Z,57
2024-04-17T13:11:15.330Z,56
2024-04-17T13:12:13.962Z,56
2024-04-17T13:13:14.176Z,56
2024-04-17T13:14:14.282Z,56
2024-04-17T13:15:14.418Z,56
2024-04-17T13:16:14.824Z,56
2024-04-17T13:17:14.920Z,56
2024-04-17T13:18:15.009Z,56
2024-04-17T13:19:15.136Z,56
2024-04-17T13:20:15.511Z,56
2024-04-17T13:21:15.640Z,56
2024-04-17T13:22:15.726Z,56
2024-04-17T13:23:16.482Z,56
2024-04-17T13:24:16.173Z,55
2024-04-17T13:25:16.205Z,55
2024-04-17T13:26:16.328Z,55
2024-04-17T13:27:16.412Z,55
2024-04-17T13:28:16.627Z,55
2024-04-17T13:29:16.796Z,55
2024-04-17T13:30:16.847Z,55
2024-04-17T13:31:17.411Z,55
2024-04-17T13:32:17.079Z,55
2024-04-17T13:33:17.234Z,55
2024-04-17T13:34:17.534Z,55
2024-04-17T13:35:17.650Z,55
2024-04-17T13:36:17.823Z,55
2024-04-17T13:37:17.915Z,55
2024-04-17T13:38:18.082Z,55
2024-04-17T13:39:18.284Z,55
2024-04-17T13:42:29.111Z,55
2024-04-17T13:43:29.284Z,55
2024-04-17T13:44:29.381Z,55
2024-04-17T13:45:29.881Z,55
2024-04-17T13:46:29.970Z,54
2024-04-17T13:47:30.189Z,54
2024-04-17T13:48:30.319Z,54
2024-04-17T13:49:30.402Z,54
2024-04-17T13:50:30.350Z,55
2024-04-17T13:51:30.835Z,55
2024-04-17T13:52:31.753Z,55
2024-04-17T14:03:04.051Z,55
2024-04-17T14:04:03.949Z,55
2024-04-17T14:05:04.042Z,55
2024-04-17T14:06:04.164Z,55
2024-04-17T14:07:04.223Z,55
2024-04-17T14:08:04.439Z,54
2024-04-17T14:09:04.529Z,54
2024-04-17T14:10:04.637Z,54
2024-04-17T14:11:04.661Z,54
2024-04-17T14:12:04.914Z,54
2024-04-17T14:13:04.969Z,54
2024-04-17T14:14:05.120Z,53
2024-04-17T14:15:05.363Z,53
2024-04-17T14:16:05.498Z,53
2024-04-17T14:17:05.582Z,53
2024-04-17T14:18:05.863Z,53
2024-04-17T14:19:05.857Z,52
2024-04-17T14:20:06.138Z,52
2024-04-17T14:21:06.878Z,52
2024-04-17T14:22:06.350Z,52
2024-04-17T14:23:07.859Z,52
2024-04-17T14:24:06.576Z,52
2024-04-17T14:25:06.681Z,52
2024-04-17T14:26:06.993Z,52
2024-04-17T14:27:07.231Z,53
2024-04-17T14:28:07.627Z,53
2024-04-17T14:29:07.488Z,53
2024-04-17T14:30:07.796Z,53
2024-04-17T14:31:07.912Z,53
2024-04-17T14:32:08.006Z,53
2024-04-17T14:33:08.217Z,53
2024-04-17T14:34:08.231Z,53